Time;durP1;ratioP1;P1;durP2;ratioP2;P2;SDS_P1;SDS_P2;PMS_P1;PMS_P2;Temp;Humidity;BMP_temperature;BMP_pressure;BME280_temperature;BME280_humidity;BME280_pressure;Samples;Min_cycle;Max_cycle;Signal;HPM_P1;HPM_P2
2022/04/15 00:02:01;;;;;;;14.07;9.85;;;;;;;12.65;63.43;101607.81;5018499;28;102480;-50
2022/04/15 00:04:30;;;;;;;12.77;9.40;;;;;;;12.67;63.37;101607.56;5026274;28;102437;-51
2022/04/15 00:07:00;;;;;;;12.60;8.77;;;;;;;12.66;63.54;101609.47;5029503;27;103949;-50
2022/04/15 00:09:27;;;;;;;14.68;10.10;;;;;;;12.65;63.36;101610.56;5017956;28;102525;-50
2022/04/15 00:11:56;;;;;;;14.35;9.43;;;;;;;12.65;63.57;101610.56;5028620;27;101938;-50
2022/04/15 00:14:23;;;;;;;14.85;9.90;;;;;;;12.65;63.28;101605.09;5030465;27;102218;-50
2022/04/15 00:16:51;;;;;;;14.40;9.25;;;;;;;12.65;63.42;101607.00;5028691;27;103900;-50
2022/04/15 00:19:19;;;;;;;13.90;9.37;;;;;;;12.66;63.86;101605.94;5018318;27;102383;-50
2022/04/15 00:21:46;;;;;;;13.23;9.60;;;;;;;12.66;63.24;101606.75;5026433;28;102463;-50
2022/04/15 00:24:12;;;;;;;12.82;8.88;;;;;;;12.65;63.42;101605.09;5021777;28;101994;-50
2022/04/15 00:26:39;;;;;;;11.90;8.68;;;;;;;12.65;63.60;101609.72;5030394;27;104012;-50
2022/04/15 00:29:07;;;;;;;14.55;9.23;;;;;;;12.65;63.58;101618.75;5012003;27;102449;-50
2022/04/15 00:31:34;;;;;;;12.35;8.73;;;;;;;12.65;63.52;101613.28;5014265;28;102171;-50
2022/04/15 00:34:04;;;;;;;12.13;8.88;;;;;;;12.65;63.65;101616.00;5031879;27;102190;-49
2022/04/15 00:36:32;;;;;;;12.23;8.95;;;;;;;12.65;63.40;101613.28;5029909;28;103906;-50
2022/04/15 00:38:59;;;;;;;14.10;9.82;;;;;;;12.65;63.58;101616.00;5026418;27;102418;-50
2022/04/15 00:41:26;;;;;;;11.98;9.13;;;;;;;12.65;63.55;101615.19;5029207;27;101907;-49
2022/04/15 00:43:53;;;;;;;12.65;9.13;;;;;;;12.65;63.63;101607.81;5029626;27;102044;-50
2022/04/15 00:46:20;;;;;;;12.18;8.60;;;;;;;12.65;63.52;101610.56;5028175;27;103987;-50
2022/04/15 00:48:46;;;;;;;12.93;9.35;;;;;;;12.64;63.49;101608.91;5032549;27;102504;-50
2022/04/15 00:51:15;;;;;;;12.48;8.80;;;;;;;12.64;63.46;101608.09;5032544;28;102057;-50
2022/04/15 00:53:44;;;;;;;14.68;9.15;;;;;;;12.64;63.62;101611.66;5034935;27;102224;-51
2022/04/15 00:56:12;;;;;;;12.20;8.88;;;;;;;12.64;63.53;101614.38;5030179;27;104152;-50
2022/04/15 00:58:40;;;;;;;12.60;8.95;;;;;;;12.64;63.36;101613.56;5013872;28;102421;-50
2022/04/15 01:01:07;;;;;;;14.13;8.82;;;;;;;12.64;63.59;101619.84;5025523;28;103487;-50
2022/04/15 01:03:35;;;;;;;12.90;9.77;;;;;;;12.64;63.62;101619.00;5034613;27;102444;-50
2022/04/15 01:06:06;;;;;;;11.85;8.20;;;;;;;12.64;63.58;101619.84;5033867;27;103987;-49
2022/04/15 01:08:38;;;;;;;12.18;8.70;;;;;;;12.63;63.61;101615.47;5033920;27;102177;-50
2022/04/15 01:11:07;;;;;;;11.40;8.35;;;;;;;12.64;63.63;101619.00;5032097;27;101954;-50
2022/04/15 01:13:36;;;;;;;13.93;9.65;;;;;;;12.63;63.64;101612.75;5033758;27;102742;-50
2022/04/15 01:16:03;;;;;;;12.15;8.95;;;;;;;12.64;63.38;101608.09;5013563;28;104264;-50
2022/04/15 01:18:29;;;;;;;12.75;9.18;;;;;;;12.63;63.54;101606.47;5013977;28;102494;-50
2022/04/15 01:20:59;;;;;;;;;;;;;;;12.62;63.65;101594.72;5020715;28;102030;-50
2022/04/15 01:23:27;;;;;;;14.25;9.20;;;;;;;12.63;63.87;101603.72;5034674;27;102492;-50
2022/04/15 01:25:54;;;;;;;14.00;9.02;;;;;;;12.62;63.63;101605.63;5033381;27;103901;-50
2022/04/15 01:28:20;;;;;;;12.07;9.02;;;;;;;12.62;63.60;101594.72;5023443;27;101906;-50
2022/04/15 01:30:48;;;;;;;12.13;8.88;;;;;;;12.62;63.75;101594.72;5013430;28;102292;-50
2022/04/15 01:33:16;;;;;;;13.57;9.07;;;;;;;12.62;63.63;101589.25;5017889;28;102380;-50
2022/04/15 01:35:42;;;;;;;14.80;8.82;;;;;;;12.61;63.56;101593.06;5032986;27;104518;-49
2022/04/15 01:38:14;;;;;;;14.00;8.80;;;;;;;12.62;63.53;101593.88;5032860;27;101890;-49
2022/04/15 01:40:43;;;;;;;13.23;9.00;;;;;;;12.61;63.58;101603.97;5027625;27;102522;-49
2022/04/15 01:43:11;;;;;;;14.48;9.52;;;;;;;12.61;63.59;101598.50;5033068;28;102023;-50
2022/04/15 01:45:38;;;;;;;12.88;9.27;;;;;;;12.61;63.52;101590.31;5032491;28;103433;-50
2022/04/15 01:48:07;;;;;;;14.57;9.95;;;;;;;12.61;63.70;101592.22;5033566;27;102364;-50
2022/04/15 01:50:34;;;;;;;12.25;9.68;;;;;;;12.61;63.58;101587.59;5032040;27;101854;-49
2022/04/15 01:53:10;;;;;;;14.27;8.70;;;;;;;12.61;63.84;101593.06;5033762;27;102112;-49
2022/04/15 01:55:36;;;;;;;13.70;9.50;;;;;;;12.61;63.43;101603.97;5021042;27;103846;-50
2022/04/15 01:58:05;;;;;;;15.40;9.98;;;;;;;12.61;63.56;101586.78;5018198;28;102252;-50
2022/04/15 02:00:31;;;;;;;12.47;9.17;;;;;;;12.61;63.58;101584.84;5031510;27;102188;-50
2022/04/15 02:02:58;;;;;;;13.60;9.45;;;;;;;12.59;63.75;101584.31;5025109;27;102454;-49
2022/04/15 02:05:24;;;;;;;14.38;10.05;;;;;;;12.60;63.68;101587.88;5028037;28;103845;-50
2022/04/15 02:07:51;;;;;;;11.02;8.65;;;;;;;12.61;63.79;101592.22;5015745;27;101870;-53
2022/04/15 02:10:18;;;;;;;11.77;9.13;;;;;;;12.61;63.58;101576.66;5023322;28;102325;-49
2022/04/15 02:13:03;;;;;;;11.68;9.02;;;;;;;12.60;63.77;101591.41;5018868;28;102064;-50
2022/04/15 02:15:30;;;;;;;11.55;8.57;;;;;;;12.60;63.66;101583.22;5030126;27;103719;-49
2022/04/15 02:17:58;;;;;;;11.88;9.10;;;;;;;12.60;63.62;101583.22;5025549;27;102386;-50
2022/04/15 02:20:25;;;;;;;13.25;9.35;;;;;;;12.60;63.65;101585.94;5014441;28;102268;-49
2022/04/15 02:22:59;;;;;;;12.40;9.10;;;;;;;12.60;63.55;101582.41;5031881;28;102172;-49
2022/04/15 02:25:25;;;;;;;12.45;9.48;;;;;;;12.60;63.75;101575.03;5031023;27;103721;-50
2022/04/15 02:27:54;;;;;;;14.90;9.57;;;;;;;12.58;63.69;101577.19;5032687;27;101795;-50
2022/04/15 02:30:22;;;;;;;12.13;8.95;;;;;;;12.59;63.57;101573.41;5031026;28;101885;-49
2022/04/15 02:32:48;;;;;;;12.32;8.68;;;;;;;12.60;63.69;101582.41;5030692;27;102790;-50
2022/04/15 02:35:15;;;;;;;12.73;8.95;;;;;;;12.59;63.72;101573.41;5029822;28;103898;-50
2022/04/15 02:37:42;;;;;;;11.95;9.00;;;;;;;12.58;63.42;101579.91;5029530;27;102396;-50
2022/04/15 02:40:10;;;;;;;12.88;9.60;;;;;;;12.58;63.54;101577.19;5026991;28;102535;-50
2022/04/15 02:42:36;;;;;;;13.25;9.30;;;;;;;12.58;63.50;101577.19;5032958;27;102199;-49
2022/04/15 02:45:04;;;;;;;14.73;9.75;;;;;;;12.57;63.50;101575.56;5031861;27;104038;-50
2022/04/15 02:47:32;;;;;;;12.05;8.88;;;;;;;12.58;63.61;101579.09;5032389;27;102225;-49
2022/04/15 02:49:58;;;;;;;11.65;8.52;;;;;;;12.57;63.54;101570.09;5026175;27;102355;-50
2022/04/15 02:52:25;;;;;;;12.13;9.18;;;;;;;12.57;63.62;101572.81;5013187;28;102325;-50
2022/04/15 02:54:52;;;;;;;13.05;9.52;;;;;;;12.58;63.69;101573.63;5011282;28;103853;-50
2022/04/15 02:57:18;;;;;;;12.13;9.32;;;;;;;12.58;63.50;101576.38;5012236;28;102133;-50
2022/04/15 02:59:45;;;;;;;11.40;8.63;;;;;;;12.57;63.55;101575.56;5024861;28;102584;-49
2022/04/15 03:02:12;;;;;;;10.50;8.55;;;;;;;12.57;63.78;101570.09;5033195;27;102037;-50
2022/04/15 03:04:40;;;;;;;11.25;8.80;;;;;;;12.56;63.64;101573.91;5028984;27;104335;-50
2022/04/15 03:07:07;;;;;;;13.02;9.15;;;;;;;12.57;63.58;101572.81;5021990;27;101970;-50
2022/04/15 03:09:33;;;;;;;11.77;8.93;;;;;;;12.56;63.71;101576.66;5027735;28;102277;-50
2022/04/15 03:12:01;;;;;;;10.63;8.50;;;;;;;12.57;63.64;101570.09;5026390;27;101949;-50
2022/04/15 03:14:27;;;;;;;12.60;8.80;;;;;;;12.57;63.81;101581.00;5031150;27;104098;-49
2022/04/15 03:16:54;;;;;;;11.30;8.50;;;;;;;12.57;63.64;101580.19;5032054;27;102178;-49
2022/04/15 03:19:20;;;;;;;12.70;8.25;;;;;;;12.57;63.75;101570.09;5030096;27;104291;-50
2022/04/15 03:21:48;;;;;;;11.40;8.75;;;;;;;12.58;63.32;101570.91;5021608;27;102375;-49
2022/04/15 03:24:14;;;;;;;11.07;8.25;;;;;;;12.57;63.68;101572.00;5028988;28;103798;-50
2022/04/15 03:26:42;;;;;;;11.15;8.32;;;;;;;12.57;63.71;101564.63;5029203;27;102340;-50
2022/04/15 03:29:08;;;;;;;11.43;9.00;;;;;;;12.57;63.52;101572.00;5029831;27;102022;-50
2022/04/15 03:31:35;;;;;;;12.55;8.95;;;;;;;12.56;63.54;101573.09;5032648;28;102436;-50
2022/04/15 03:34:01;;;;;;;13.05;8.65;;;;;;;12.57;63.67;101578.28;5030761;27;103941;-50
2022/04/15 03:36:28;;;;;;;13.23;8.55;;;;;;;12.57;63.70;101581.00;5026794;27;102354;-50
2022/04/15 03:38:56;;;;;;;12.68;8.88;;;;;;;12.57;63.65;101581.00;5021305;28;102080;-50
2022/04/15 03:41:23;;;;;;;12.00;8.85;;;;;;;12.57;63.72;101582.94;5012601;28;102672;-50
2022/04/15 03:43:51;;;;;;;10.75;8.60;;;;;;;12.57;63.68;101580.19;5010249;28;104126;-50
2022/04/15 03:46:18;;;;;;;11.63;9.02;;;;;;;12.56;63.79;101581.28;5013308;28;102867;-50
2022/04/15 03:48:44;;;;;;;13.27;8.80;;;;;;;12.56;63.61;101590.31;5028062;27;102552;-50
2022/04/15 03:51:11;;;;;;;10.18;8.02;;;;;;;12.56;63.48;101593.03;5013097;27;102462;-50
2022/04/15 03:53:38;;;;;;;9.18;8.02;;;;;;;12.56;63.71;101584.84;5030116;27;103931;-50
2022/04/15 03:56:07;;;;;;;12.35;9.23;;;;;;;12.57;63.61;101594.66;5018846;27;102363;-50
2022/04/15 03:58:36;;;;;;;10.88;8.10;;;;;;;12.57;63.62;101596.56;5019442;28;102101;-50
2022/04/15 04:01:02;;;;;;;13.65;8.50;;;;;;;12.57;63.81;101581.00;5032420;27;102216;-50
2022/04/15 04:03:33;;;;;;;10.00;7.82;;;;;;;12.58;63.65;101581.81;5016523;27;104553;-50
2022/04/15 04:05:59;;;;;;;10.52;8.43;;;;;;;12.58;63.72;101584.56;5023710;28;101920;-50
2022/04/15 04:08:26;;;;;;;12.85;8.70;;;;;;;12.58;63.30;101577.19;5024387;27;102095;-49
2022/04/15 04:10:53;;;;;;;11.13;8.32;;;;;;;12.59;63.46;101578.84;5023371;27;102566;-50
2022/04/15 04:13:38;;;;;;;9.40;8.20;;;;;;;12.60;63.40;101585.13;5024174;28;103886;-50
2022/04/15 04:16:05;;;;;;;9.45;8.13;;;;;;;12.61;63.34;101603.97;5014291;27;101828;-50
2022/04/15 04:18:34;;;;;;;9.02;8.07;;;;;;;12.61;63.36;101598.50;5018822;28;102328;-50
2022/04/15 04:21:00;;;;;;;10.45;7.65;;;;;;;12.62;63.26;101594.72;5021007;27;102395;-50
2022/04/15 04:23:26;;;;;;;10.80;7.80;;;;;;;12.62;63.43;101586.53;5025648;27;103879;-50
2022/04/15 04:25:54;;;;;;;12.43;8.10;;;;;;;12.63;63.42;101601.81;5023464;28;101767;-50
2022/04/15 04:28:21;;;;;;;10.30;8.18;;;;;;;12.63;63.31;101601.00;5022943;27;102003;-50
2022/04/15 04:30:49;;;;;;;10.75;7.82;;;;;;;12.64;63.36;101595.25;5034468;27;102138;-50
2022/04/15 04:33:15;;;;;;;9.93;7.68;;;;;;;12.65;63.38;101588.69;5033196;27;103817;-50
2022/04/15 04:35:42;;;;;;;9.68;7.22;;;;;;;12.67;63.23;101592.00;5034963;27;101867;-50
2022/04/15 04:38:08;;;;;;;10.05;7.97;;;;;;;12.67;63.02;101591.19;5031970;27;101978;-50
2022/04/15 04:40:35;;;;;;;10.85;8.75;;;;;;;12.66;63.21;101595.84;5032967;27;102240;-50
2022/04/15 04:43:02;;;;;;;9.45;7.03;;;;;;;12.68;63.27;101601.84;5016737;28;104054;-52
2022/04/15 04:45:29;;;;;;;10.57;7.80;;;;;;;12.69;63.24;101598.03;5016833;27;101978;-50
2022/04/15 04:47:59;;;;;;;9.07;7.23;;;;;;;12.70;63.19;101601.59;5014284;28;102029;-50
2022/04/15 04:50:25;;;;;;;8.65;7.25;;;;;;;12.71;63.15;101614.16;5015061;28;102269;-50
2022/04/15 04:52:53;;;;;;;9.68;7.93;;;;;;;12.73;63.14;101612.81;5020147;28;104010;-50
2022/04/15 04:55:20;;;;;;;10.73;7.85;;;;;;;12.74;63.23;101608.16;5014081;28;102739;-50
2022/04/15 04:57:47;;;;;;;10.52;7.78;;;;;;;12.74;63.13;101608.97;5017305;28;102081;-50
2022/04/15 05:00:16;;;;;;;10.35;8.20;;;;;;;12.77;63.08;101606.81;5035054;28;102449;-50
2022/04/15 05:02:44;;;;;;;10.60;8.10;;;;;;;12.78;63.29;101614.75;5032107;28;104070;-50
2022/04/15 05:05:12;;;;;;;12.45;8.32;;;;;;;12.79;63.15;101615.56;5032844;27;101903;-50
2022/04/15 05:07:39;;;;;;;12.35;8.40;;;;;;;12.80;63.06;101617.19;5024495;27;102479;-50
2022/04/15 05:10:06;;;;;;;10.00;8.18;;;;;;;12.80;63.23;101611.72;5034368;27;102502;-50
2022/04/15 05:12:36;;;;;;;9.90;7.95;;;;;;;12.81;63.24;101614.22;5030847;27;104075;-50
2022/04/15 05:15:03;;;;;;;11.40;8.73;;;;;;;12.84;63.02;101612.84;5013924;28;102411;-50
2022/04/15 05:17:30;;;;;;;17.55;7.78;;;;;;;12.85;63.13;101617.25;5025402;28;102065;-50
2022/04/15 05:19:57;;;;;;;12.38;7.65;;;;;;;12.85;62.89;101614.50;5034596;27;102453;-50
2022/04/15 05:22:24;;;;;;;12.15;8.10;;;;;;;12.87;63.00;101612.31;5031194;27;103825;-50
2022/04/15 05:24:52;;;;;;;11.07;8.13;;;;;;;12.88;63.02;101608.53;5033164;27;101918;-50
2022/04/15 05:27:19;;;;;;;13.60;7.95;;;;;;;12.89;62.79;101610.97;5014603;27;102656;-50
2022/04/15 05:29:46;;;;;;;15.55;8.10;;;;;;;12.90;62.91;101612.59;5024905;28;102618;-50
2022/04/15 05:32:13;;;;;;;10.80;7.95;;;;;;;12.92;62.93;101604.16;5030765;27;105182;-50
2022/04/15 05:34:39;;;;;;;11.02;7.68;;;;;;;12.93;62.85;101612.09;5040344;27;102258;-49
2022/04/15 05:37:06;;;;;;;14.25;8.50;;;;;;;12.95;62.86;101615.38;5028548;27;102037;-49
2022/04/15 05:39:34;;;;;;;9.85;7.32;;;;;;;12.97;62.86;101615.94;5024337;27;103593;-50
2022/04/15 05:42:01;;;;;;;10.07;7.28;;;;;;;12.99;62.90;101610.22;5028563;28;103957;-51
2022/04/15 05:44:27;;;;;;;11.02;7.10;;;;;;;13.02;62.92;101608.84;5029446;27;102319;-50
2022/04/15 05:46:54;;;;;;;11.10;7.57;;;;;;;13.02;62.92;101615.16;5030775;27;102184;-50
2022/04/15 05:49:21;;;;;;;9.02;7.07;;;;;;;13.03;63.00;101616.78;5030638;27;102574;-50
2022/04/15 05:51:48;;;;;;;9.70;6.90;;;;;;;13.05;62.77;101613.78;5029196;27;103927;-50
2022/04/15 05:54:15;;;;;;;8.90;7.03;;;;;;;13.06;63.05;101609.97;5031946;27;102188;-50
2022/04/15 05:56:43;;;;;;;8.18;6.63;;;;;;;13.08;62.77;101614.06;5035184;27;102479;-50
2022/04/15 05:59:09;;;;;;;7.45;6.50;;;;;;;13.08;62.94;101614.06;5016979;28;102171;-50
2022/04/15 06:01:39;;;;;;;9.73;7.00;;;;;;;13.10;62.86;101617.38;5033077;27;103970;-50
2022/04/15 06:04:05;;;;;;;8.73;6.38;;;;;;;13.12;62.83;101614.34;5033035;27;102607;-50
2022/04/15 06:06:32;;;;;;;10.27;7.25;;;;;;;13.12;62.91;101620.63;5032508;27;102464;-50
2022/04/15 06:08:59;;;;;;;8.43;6.65;;;;;;;13.13;62.84;101614.09;5021439;27;102593;-50
2022/04/15 06:11:25;;;;;;;9.45;6.82;;;;;;;13.15;62.38;101617.38;5021152;27;104306;-50
2022/04/15 06:13:54;;;;;;;9.82;6.35;;;;;;;13.14;62.83;101613.00;5038097;27;101880;-50
2022/04/15 06:16:20;;;;;;;8.95;6.40;;;;;;;13.16;62.75;101616.31;5033120;27;102031;-50
2022/04/15 06:18:47;;;;;;;7.97;6.57;;;;;;;13.18;62.69;101614.13;5030024;27;102481;-50
2022/04/15 06:21:14;;;;;;;8.48;6.10;;;;;;;13.18;62.86;101614.13;5039321;27;103381;-50
2022/04/15 06:23:40;;;;;;;10.00;7.03;;;;;;;13.18;62.88;101614.13;5044703;27;102415;-50
2022/04/15 06:26:07;;;;;;;9.55;6.95;;;;;;;13.19;62.76;101615.75;5037617;27;102178;-50
2022/04/15 06:28:34;;;;;;;7.93;6.35;;;;;;;13.21;62.77;101610.03;5033210;27;102127;-50
2022/04/15 06:31:02;;;;;;;8.90;6.05;;;;;;;13.21;62.80;101602.66;5032189;27;103856;-50
2022/04/15 06:33:29;;;;;;;7.00;5.85;;;;;;;13.21;62.63;101602.66;5027131;28;102038;-50
2022/04/15 06:35:55;;;;;;;8.02;6.57;;;;;;;13.21;62.84;101608.13;5030641;27;102609;-50
2022/04/15 06:38:22;;;;;;;9.20;6.60;;;;;;;13.24;62.74;101608.72;5031263;27;101946;-50
2022/04/15 06:40:48;;;;;;;9.20;6.53;;;;;;;13.24;62.82;101608.72;5028076;27;103906;-50
2022/04/15 06:43:16;;;;;;;8.68;5.93;;;;;;;13.25;62.86;101602.16;5014689;28;102567;-50
2022/04/15 06:45:42;;;;;;;9.30;6.47;;;;;;;13.25;63.04;101608.44;5030687;27;102563;-50
2022/04/15 06:48:10;;;;;;;8.38;6.18;;;;;;;13.27;62.69;101610.91;5033529;27;102642;-50
2022/04/15 06:50:37;;;;;;;8.73;6.30;;;;;;;13.28;62.74;101609.81;5022806;27;103856;-50
2022/04/15 06:53:04;;;;;;;11.10;5.80;;;;;;;13.31;62.79;101612.84;5025275;27;102153;-52
2022/04/15 06:55:32;;;;;;;12.75;6.47;;;;;;;13.37;62.47;101614.50;5023905;27;102086;-51
2022/04/15 06:57:58;;;;;;;25.40;9.35;;;;;;;13.41;62.41;101612.03;5027304;28;102615;-51
2022/04/15 07:00:25;;;;;;;17.10;7.88;;;;;;;13.43;62.16;101612.59;5020285;27;104040;-51
2022/04/15 07:02:52;;;;;;;34.78;6.80;;;;;;;13.47;61.87;101613.72;5026263;27;102832;-51
2022/04/15 07:05:20;;;;;;;23.38;6.78;;;;;;;13.51;61.68;101616.72;5030864;27;102402;-51
2022/04/15 07:07:46;;;;;;;17.07;6.53;;;;;;;13.53;61.63;101614.56;5030360;27;102450;-51
2022/04/15 07:10:13;;;;;;;16.63;6.63;;;;;;;13.53;61.46;101612.66;5026948;27;103912;-51
2022/04/15 07:12:40;;;;;;;15.40;6.30;;;;;;;13.50;61.49;101610.44;5031120;27;102273;-51
2022/04/15 07:15:07;;;;;;;16.88;7.40;;;;;;;13.52;61.58;101616.44;5023225;27;102841;-51
2022/04/15 07:17:34;;;;;;;13.77;6.50;;;;;;;13.53;61.58;101618.13;5022434;28;102744;-52
2022/04/15 07:20:06;;;;;;;16.08;6.03;;;;;;;13.54;61.64;101619.75;5031381;28;103923;-51
2022/04/15 07:22:34;;;;;;;20.20;6.18;;;;;;;13.55;61.46;101615.91;5031855;27;101811;-51
2022/04/15 07:25:00;;;;;;;44.15;7.28;;;;;;;13.56;61.63;101612.09;5020004;27;102072;-51
2022/04/15 07:27:27;;;;;;;36.22;7.70;;;;;;;13.56;61.81;101609.38;5033249;27;102535;-52
2022/04/15 07:29:54;;;;;;;33.05;7.82;;;;;;;13.57;61.87;101608.28;5031338;27;104092;-51
2022/04/15 07:32:21;;;;;;;29.52;6.72;;;;;;;13.59;61.77;101614.28;5028309;27;102286;-51
2022/04/15 07:35:07;;;;;;;41.45;8.38;;;;;;;13.60;61.81;101615.94;5017346;28;101902;-51
2022/04/15 07:37:37;;;;;;;26.08;6.72;;;;;;;13.61;61.76;101612.09;5031457;27;102127;-51
2022/04/15 07:40:04;;;;;;;29.20;6.60;;;;;;;13.61;61.72;101606.63;5029515;27;103818;-51
2022/04/15 07:42:31;;;;;;;19.48;5.80;;;;;;;13.62;61.72;101605.53;5032191;27;101940;-51
2022/04/15 07:44:57;;;;;;;16.33;5.75;;;;;;;13.63;61.87;101607.19;5028520;27;101898;-51
2022/04/15 07:47:26;;;;;;;21.80;6.70;;;;;;;13.63;62.16;101604.47;5031604;28;103519;-52
2022/04/15 07:49:52;;;;;;;17.75;6.13;;;;;;;13.64;61.98;101606.09;5043593;27;103985;-51
2022/04/15 07:52:19;;;;;;;23.15;7.13;;;;;;;13.65;61.87;101602.28;5029137;27;102017;-51
2022/04/15 07:54:48;;;;;;;21.17;6.68;;;;;;;13.66;61.92;101603.09;5031187;27;102603;-51
2022/04/15 07:57:17;;;;;;;;;;;;;;;13.67;61.87;101607.50;5017447;28;102440;-51
2022/04/15 07:59:44;;;;;;;24.10;6.40;;;;;;;13.67;61.82;101605.56;5030359;27;104060;-51
2022/04/15 08:02:13;;;;;;;25.65;5.97;;;;;;;13.68;61.52;101600.91;5022865;28;101986;-51
2022/04/15 08:04:41;;;;;;;25.75;6.88;;;;;;;13.69;61.79;101597.91;5025441;28;102370;-51
2022/04/15 08:07:08;;;;;;;23.25;7.18;;;;;;;13.69;61.72;101605.28;5022644;27;102645;-51
2022/04/15 08:09:35;;;;;;;19.25;6.18;;;;;;;13.69;61.81;101597.06;5020721;27;103808;-51
2022/04/15 08:12:04;;;;;;;17.20;6.68;;;;;;;13.70;61.84;101599.56;5026627;28;102113;-51
2022/04/15 08:14:30;;;;;;;27.20;6.57;;;;;;;13.70;61.97;101594.09;5023694;27;102301;-51
2022/04/15 08:16:58;;;;;;;13.75;5.80;;;;;;;13.72;61.59;101593.00;5025938;28;102341;-51
2022/04/15 08:19:25;;;;;;;18.00;5.93;;;;;;;13.72;61.28;101587.53;5024388;27;103936;-51
2022/04/15 08:21:53;;;;;;;11.02;5.88;;;;;;;13.73;61.49;101586.41;5020684;28;102695;-51
2022/04/15 08:24:21;;;;;;;12.70;5.35;;;;;;;13.73;61.64;101589.16;5024034;27;102020;-51
2022/04/15 08:26:49;;;;;;;15.27;5.50;;;;;;;13.73;61.73;101586.41;5028850;27;102561;-51
2022/04/15 08:29:22;;;;;;;16.48;5.80;;;;;;;13.73;61.82;101592.69;5012272;27;104032;-51
2022/04/15 08:31:49;;;;;;;16.35;6.13;;;;;;;13.74;61.88;101582.56;5025386;28;102199;-51
2022/04/15 08:34:15;;;;;;;13.95;5.93;;;;;;;13.74;61.67;101582.56;5026778;27;103531;-51
2022/04/15 08:36:42;;;;;;;10.30;5.60;;;;;;;13.74;61.94;101585.31;5028249;27;102451;-51
2022/04/15 08:39:08;;;;;;;13.77;5.88;;;;;;;13.75;61.85;101574.13;5022311;28;103584;-51
2022/04/15 08:41:40;;;;;;;16.45;6.07;;;;;;;13.75;61.80;101570.56;5024633;27;102087;-52
2022/04/15 08:44:08;;;;;;;14.05;5.50;;;;;;;13.74;61.93;101567.00;5020660;27;103995;-51
2022/04/15 08:46:38;;;;;;;10.52;5.20;;;;;;;13.76;61.87;101570.28;5024884;28;102499;-51
2022/04/15 08:49:05;;;;;;;;;;;;;;;13.76;61.67;101567.53;5021018;27;103979;-51
2022/04/15 08:51:41;;;;;;;12.38;5.90;;;;;;;13.78;61.61;101561.81;5014729;28;102651;-52
2022/04/15 08:54:09;;;;;;;14.63;5.78;;;;;;;13.77;61.71;101562.88;5028599;28;102215;-51
2022/04/15 08:56:36;;;;;;;10.45;5.05;;;;;;;13.77;61.55;101560.97;5032172;27;102145;-51
2022/04/15 08:59:03;;;;;;;10.20;4.90;;;;;;;13.77;61.67;101554.69;5029475;27;103985;-51
2022/04/15 09:01:30;;;;;;;12.18;5.72;;;;;;;13.77;61.87;101557.41;5019933;28;102317;-51
2022/04/15 09:04:00;;;;;;;9.95;5.05;;;;;;;13.77;62.05;101549.22;5034702;27;101899;-52
2022/04/15 09:06:29;;;;;;;8.57;5.10;;;;;;;13.79;61.82;101557.97;5026286;27;102075;-52
2022/04/15 09:09:00;;;;;;;12.07;5.13;;;;;;;13.78;61.74;101546.22;5016218;28;104193;-52
2022/04/15 09:11:31;;;;;;;11.27;5.68;;;;;;;13.80;61.59;101552.22;5033578;27;102146;-52
2022/04/15 09:14:02;;;;;;;11.98;5.40;;;;;;;13.79;61.44;101542.38;5025057;27;101930;-51
2022/04/15 09:16:45;;;;;;;11.82;4.72;;;;;;;13.78;61.37;101546.22;5015225;28;101990;-52
2022/04/15 09:19:14;;;;;;;;;;;;;;;13.78;61.72;101546.22;5020736;27;103831;-51
2022/04/15 09:21:44;;;;;;;7.55;4.78;;;;;;;13.78;61.40;101548.13;5032658;28;102310;-52
2022/04/15 09:24:11;;;;;;;8.85;5.13;;;;;;;13.78;61.54;101539.94;5033322;27;102041;-52
2022/04/15 09:26:38;;;;;;;8.27;4.95;;;;;;;13.78;61.68;101539.94;5034865;27;102169;-52
2022/04/15 09:29:04;;;;;;;7.00;4.40;;;;;;;13.78;61.71;101545.41;5022075;27;103866;-51
2022/04/15 09:31:31;;;;;;;10.52;4.85;;;;;;;13.78;61.52;101529.00;5031858;28;102440;-51
2022/04/15 09:33:59;;;;;;;9.35;5.10;;;;;;;13.78;61.89;101539.94;5018656;28;102214;-52
2022/04/15 09:36:35;;;;;;;6.68;4.40;;;;;;;13.79;61.62;101531.44;5034012;27;102200;-51
2022/04/15 09:39:10;;;;;;;10.05;5.68;;;;;;;13.78;61.38;101529.81;5029831;27;103935;-51
2022/04/15 09:41:37;;;;;;;10.18;5.28;;;;;;;13.78;61.60;101531.72;5028651;28;104318;-51
2022/04/15 09:44:05;;;;;;;6.65;4.45;;;;;;;13.77;61.96;101522.66;5025325;27;103661;-51
2022/04/15 09:46:32;;;;;;;7.53;4.90;;;;;;;13.78;61.62;101520.78;5030041;27;102735;-51
2022/04/15 09:49:03;;;;;;;12.32;4.60;;;;;;;13.78;61.55;101524.34;5012958;28;103872;-51
2022/04/15 09:51:33;;;;;;;7.13;4.47;;;;;;;13.78;61.51;101523.53;5033695;28;102300;-52
2022/04/15 09:54:09;;;;;;;13.55;4.78;;;;;;;13.81;61.27;101528.41;5031306;27;101957;-51
2022/04/15 09:56:39;;;;;;;13.32;4.63;;;;;;;13.80;60.85;101522.13;5027856;28;101956;-53
2022/04/15 09:59:08;;;;;;;31.63;6.15;;;;;;;13.80;60.76;101524.06;5028698;27;103750;-53
2022/04/15 10:01:40;;;;;;;27.55;5.55;;;;;;;13.82;60.38;101525.44;5025899;27;102468;-51
2022/04/15 10:04:08;;;;;;;46.00;7.70;;;;;;;13.85;59.16;101524.06;5022215;28;102489;-53
2022/04/15 10:06:37;;;;;;;69.70;8.60;;;;;;;13.82;59.61;101524.59;5024072;28;102239;-52
2022/04/15 10:09:06;;;;;;;45.00;7.00;;;;;;;13.81;59.89;101522.94;5032008;28;104305;-53
2022/04/15 10:11:37;;;;;;;23.92;6.72;;;;;;;13.81;60.16;101510.13;5032038;27;102600;-53
2022/04/15 10:14:03;;;;;;;28.05;6.70;;;;;;;13.81;60.50;101503.78;5023128;27;102066;-53
2022/04/15 10:16:33;;;;;;;25.27;6.07;;;;;;;13.80;60.50;101505.72;5032160;27;102075;-53
2022/04/15 10:19:01;;;;;;;34.95;6.13;;;;;;;13.78;60.50;101501.63;5028799;27;104003;-53
2022/04/15 10:21:32;;;;;;;16.52;5.50;;;;;;;13.78;60.73;101504.38;5026226;27;102495;-53
2022/04/15 10:24:01;;;;;;;25.42;6.22;;;;;;;13.79;60.71;101504.09;5016377;28;101917;-53
2022/04/15 10:26:32;;;;;;;23.97;5.50;;;;;;;13.78;60.71;101499.72;5001852;27;102166;-52
2022/04/15 10:29:02;;;;;;;17.13;5.32;;;;;;;13.77;60.64;101500.78;5010751;28;104019;-53
2022/04/15 10:31:38;;;;;;;20.33;5.60;;;;;;;13.76;60.81;101504.63;5013001;28;102301;-52
2022/04/15 10:34:11;;;;;;;20.75;5.68;;;;;;;13.76;60.63;101498.34;5007075;28;101901;-52
2022/04/15 10:36:38;;;;;;;14.52;4.88;;;;;;;13.74;60.49;101500.50;4993534;28;102207;-52
2022/04/15 10:39:16;;;;;;;16.98;5.20;;;;;;;13.73;60.77;101502.44;4996880;28;103894;-53
2022/04/15 10:41:53;;;;;;;21.65;5.93;;;;;;;13.73;60.88;101488.75;5005322;28;102253;-52
2022/04/15 10:44:33;;;;;;;15.35;5.03;;;;;;;13.72;60.64;101498.06;5025058;28;101948;-52
2022/04/15 10:47:11;;;;;;;16.77;5.10;;;;;;;13.72;61.02;101491.78;5005831;28;102639;-52
2022/04/15 10:49:51;;;;;;;18.75;5.75;;;;;;;13.71;60.84;101496.44;4999072;28;104060;-52
2022/04/15 10:52:22;;;;;;;17.42;4.97;;;;;;;13.70;60.70;101481.94;4993395;28;101999;-53
2022/04/15 10:54:51;;;;;;;14.85;5.00;;;;;;;13.70;60.84;101475.63;4993400;28;102328;-53
2022/04/15 10:57:18;;;;;;;12.23;5.00;;;;;;;13.68;60.60;101486.84;5003006;27;101860;-52
2022/04/15 11:02:40;;;;;;;12.93;4.90;;;;;;;13.66;60.72;101486.28;5003936;27;102865;-53
2022/04/15 11:05:11;;;;;;;14.60;4.50;;;;;;;13.67;60.63;101487.13;5004868;28;102366;-52
2022/04/15 11:07:48;;;;;;;9.75;4.05;;;;;;;13.66;60.70;101489.03;5000449;27;102572;-52
2022/04/15 11:10:32;;;;;;;24.57;21.90;;;;;;;13.66;60.48;101472.59;4996290;27;103537;-53
2022/04/15 11:13:32;;;;;;;8.63;4.25;;;;;;;13.65;60.84;101475.63;4985931;27;102797;-53
2022/04/15 11:16:12;;;;;;;10.77;4.32;;;;;;;13.64;60.94;101469.34;5001938;27;102437;-52
2022/04/15 11:18:50;;;;;;;8.77;3.88;;;;;;;13.64;60.78;101463.88;5009190;27;102225;-53
2022/04/15 11:21:18;;;;;;;15.18;4.30;;;;;;;13.63;60.74;101470.44;5010932;27;108079;-52